Time;durP1;ratioP1;P1;durP2;ratioP2;P2;SDS_P1;SDS_P2;PMS_P1;PMS_P2;Temp;Humidity;BMP_temperature;BMP_pressure;BME280_temperature;BME280_humidity;BME280_pressure;Samples;Min_cycle;Max_cycle;Signal;HPM_P1;HPM_P2
2022/01/10 00:00:24;;;;;;;5.33;2.83;;;3.50;91.70;;;;;;6242894;22;20176;-87
2022/01/10 00:02:56;;;;;;;5.23;1.97;;;3.50;92.00;;;;;;6245602;22;20506;-89
2022/01/10 00:05:23;;;;;;;5.13;2.60;;;3.50;91.70;;;;;;6244392;22;20164;-87
2022/01/10 00:07:50;;;;;;;3.80;2.30;;;3.50;91.90;;;;;;6245291;22;20252;-87
2022/01/10 00:10:18;;;;;;;2.53;2.27;;;3.50;91.90;;;;;;6244158;22;20685;-87
2022/01/10 00:12:46;;;;;;;2.90;2.03;;;3.50;91.60;;;;;;6244936;22;20180;-87
2022/01/10 00:15:16;;;;;;;3.50;2.30;;;3.50;91.80;;;;;;6244517;22;20176;-87
2022/01/10 00:17:43;;;;;;;3.23;2.00;;;3.50;91.70;;;;;;6245028;22;20312;-87
2022/01/10 00:20:15;;;;;;;3.87;2.57;;;3.50;91.60;;;;;;6244912;22;20263;-87
2022/01/10 00:22:45;;;;;;;4.33;3.20;;;3.50;91.80;;;;;;6244914;22;20191;-87
2022/01/10 00:25:14;;;;;;;7.47;4.60;;;3.50;92.50;;;;;;6244303;22;20510;-87
2022/01/10 00:27:42;;;;;;;7.10;5.30;;;3.60;92.60;;;;;;6244734;22;20203;-86
2022/01/10 00:30:10;;;;;;;4.87;3.20;;;3.60;92.60;;;;;;6245283;22;20165;-87
2022/01/10 00:32:37;;;;;;;7.03;4.57;;;3.50;91.90;;;;;;6243627;22;20196;-85
2022/01/10 00:35:06;;;;;;;5.50;2.93;;;3.30;92.20;;;;;;6244794;22;20253;-87
2022/01/10 00:37:35;;;;;;;12.90;8.60;;;3.30;92.60;;;;;;6244497;22;20515;-87
2022/01/10 00:40:04;;;;;;;5.17;3.00;;;3.30;93.20;;;;;;6245705;22;20165;-86
2022/01/10 00:42:32;;;;;;;5.13;3.07;;;3.30;92.90;;;;;;6244798;22;20204;-86
2022/01/10 00:45:02;;;;;;;4.23;2.60;;;3.20;92.70;;;;;;6245379;22;20248;-87
2022/01/10 00:47:30;;;;;;;3.90;2.90;;;3.10;92.90;;;;;;6245073;22;20212;-85
2022/01/10 00:49:57;;;;;;;5.43;2.90;;;3.10;93.00;;;;;;6243795;23;20179;-91
2022/01/10 00:52:24;;;;;;;6.00;3.90;;;2.90;93.60;;;;;;6243672;23;20193;-86
2022/01/10 00:54:53;;;;;;;8.10;6.10;;;2.90;93.90;;;;;;6246335;22;20204;-88
2022/01/10 00:57:26;;;;;;;11.07;7.70;;;3.00;94.00;;;;;;6244377;22;20526;-87
2022/01/10 00:59:54;;;;;;;4.47;2.93;;;3.10;94.10;;;;;;6247668;22;20217;-86
2022/01/10 01:02:22;;;;;;;3.53;2.67;;;2.90;93.50;;;;;;6246201;22;20197;-89
2022/01/10 01:04:51;;;;;;;3.43;2.70;;;2.90;93.50;;;;;;6246071;22;20189;-86
2022/01/10 01:07:19;;;;;;;10.87;8.33;;;2.80;93.60;;;;;;6245765;22;20272;-86
2022/01/10 01:09:53;;;;;;;8.50;6.07;;;2.90;95.20;;;;;;6247212;22;20316;-87
2022/01/10 01:12:35;;;;;;;6.83;4.83;;;3.00;94.70;;;;;;6247009;22;20258;-87
2022/01/10 01:15:17;;;;;;;23.70;15.37;;;3.10;94.70;;;;;;6246109;22;20169;-86
2022/01/10 01:17:58;;;;;;;11.07;8.03;;;3.30;95.10;;;;;;6247230;22;20481;-87
2022/01/10 01:20:43;;;;;;;8.43;6.07;;;3.40;94.40;;;;;;6244909;22;20173;-86
2022/01/10 01:26:01;;;;;;;14.47;9.50;;;3.40;93.50;;;;;;6244944;22;20578;-86
2022/01/10 01:28:31;;;;;;;6.90;5.40;;;3.50;94.40;;;;;;6245593;22;20176;-87
2022/01/10 01:30:58;;;;;;;8.77;5.13;;;3.60;93.60;;;;;;6244905;22;20876;-87
2022/01/10 01:33:26;;;;;;;8.00;5.63;;;3.60;93.40;;;;;;6245066;23;20617;-86
2022/01/10 01:35:54;;;;;;;5.33;4.43;;;3.60;93.20;;;;;;6245040;22;20251;-86
2022/01/10 01:38:21;;;;;;;8.53;5.30;;;3.60;93.60;;;;;;6243055;23;20643;-86
2022/01/10 01:40:55;;;;;;;6.93;5.07;;;3.70;93.40;;;;;;6244496;22;20511;-87
2022/01/10 01:43:22;;;;;;;9.17;6.23;;;3.80;93.30;;;;;;6244040;22;20178;-87
2022/01/10 01:45:51;;;;;;;6.53;4.87;;;3.90;93.40;;;;;;6243287;22;20272;-87
2022/01/10 01:48:18;;;;;;;7.70;5.10;;;3.90;92.70;;;;;;6244104;22;20175;-86
2022/01/10 01:50:47;;;;;;;9.47;5.40;;;3.90;92.50;;;;;;6241253;22;20212;-87
2022/01/10 01:53:14;;;;;;;7.57;4.47;;;3.90;92.90;;;;;;6243330;23;20173;-87
2022/01/10 01:55:41;;;;;;;5.90;4.30;;;4.00;92.40;;;;;;6243869;22;20299;-87
2022/01/10 01:58:08;;;;;;;7.63;4.53;;;4.00;92.20;;;;;;6245077;22;20188;-87
2022/01/10 02:00:35;;;;;;;7.97;4.40;;;4.00;92.30;;;;;;6243904;22;20256;-87
2022/01/10 02:03:04;;;;;;;7.00;4.00;;;4.00;92.30;;;;;;6244184;22;20165;-85
2022/01/10 02:05:31;;;;;;;5.33;4.37;;;4.10;92.00;;;;;;6243847;22;20177;-87
2022/01/10 02:07:58;;;;;;;5.17;3.73;;;4.00;92.10;;;;;;6244514;22;20940;-86
2022/01/10 02:10:25;;;;;;;4.97;3.80;;;4.10;92.20;;;;;;6244038;22;20166;-86
2022/01/10 02:12:52;;;;;;;4.30;3.30;;;4.00;92.20;;;;;;6244623;22;20172;-87
2022/01/10 02:15:33;;;;;;;5.93;3.83;;;4.00;92.20;;;;;;6243644;22;20166;-85
2022/01/10 02:18:00;;;;;;;5.60;3.50;;;4.00;92.20;;;;;;6244580;22;20492;-86
2022/01/10 02:20:31;;;;;;;4.37;3.73;;;4.00;92.20;;;;;;6243795;22;20177;-86
2022/01/10 02:22:58;;;;;;;3.43;3.13;;;3.90;92.00;;;;;;6245759;22;20162;-86
2022/01/10 02:25:39;;;;;;;4.80;3.23;;;3.90;92.00;;;;;;6245441;22;20193;-87
2022/01/10 02:28:06;;;;;;;3.97;3.03;;;3.80;91.80;;;;;;6246880;22;20160;-87
2022/01/10 02:30:34;;;;;;;5.30;3.63;;;3.80;91.90;;;;;;6243712;22;20252;-87
2022/01/10 02:33:02;;;;;;;5.13;3.20;;;3.70;91.90;;;;;;6246642;22;20259;-86
2022/01/10 02:35:40;;;;;;;3.17;2.87;;;3.70;92.10;;;;;;6245601;22;20232;-86
2022/01/10 02:38:08;;;;;;;3.83;2.80;;;3.70;92.20;;;;;;6246533;22;20157;-85
2022/01/10 02:40:35;;;;;;;5.90;3.70;;;3.70;92.40;;;;;;6245689;22;20170;-87
2022/01/10 02:43:06;;;;;;;5.50;2.70;;;3.70;92.60;;;;;;6246627;22;20169;-85
2022/01/10 02:45:34;;;;;;;4.20;2.80;;;3.70;92.40;;;;;;6245563;22;20188;-88
2022/01/10 02:48:01;;;;;;;4.63;2.77;;;3.70;92.50;;;;;;6247318;22;20176;-86
2022/01/10 02:50:28;;;;;;;3.70;2.50;;;3.70;92.10;;;;;;6246571;22;20173;-85
2022/01/10 02:52:56;;;;;;;3.93;2.77;;;3.60;92.30;;;;;;6246495;22;20170;-86
2022/01/10 02:55:23;;;;;;;3.93;2.97;;;3.60;92.20;;;;;;6246181;22;20231;-86
2022/01/10 02:57:50;;;;;;;4.47;2.50;;;3.70;92.20;;;;;;6247229;22;20256;-87
2022/01/10 03:00:20;;;;;;;4.23;2.80;;;3.60;92.40;;;;;;6219153;22;20173;-87
2022/01/10 03:02:49;;;;;;;4.10;2.70;;;3.50;92.70;;;;;;6246041;22;20169;-86
2022/01/10 03:05:17;;;;;;;5.23;2.83;;;3.50;93.20;;;;;;6245866;22;20547;-86
2022/01/10 03:07:44;;;;;;;3.60;2.60;;;3.50;93.40;;;;;;6245361;23;20172;-87
2022/01/10 03:10:13;;;;;;;5.00;2.60;;;3.50;93.60;;;;;;6246140;22;20256;-84
2022/01/10 03:12:41;;;;;;;3.10;2.10;;;3.60;93.20;;;;;;6246433;22;20205;-87
2022/01/10 03:15:10;;;;;;;6.13;2.47;;;3.50;93.20;;;;;;6247580;22;20853;-85
2022/01/10 03:17:39;;;;;;;2.53;2.20;;;3.50;92.90;;;;;;6247488;22;20276;-85
2022/01/10 03:20:09;;;;;;;2.93;2.63;;;3.50;93.10;;;;;;6250036;22;20664;-86
2022/01/10 03:22:36;;;;;;;3.37;2.60;;;3.50;93.20;;;;;;6250547;22;21097;-85
2022/01/10 03:25:04;;;;;;;5.10;2.57;;;3.50;93.30;;;;;;6251174;22;20189;-85
2022/01/10 03:27:34;;;;;;;4.60;2.70;;;3.40;93.20;;;;;;6250024;22;20201;-86
2022/01/10 03:30:01;;;;;;;4.13;2.80;;;3.50;93.00;;;;;;6251471;22;20175;-86
2022/01/10 03:32:28;;;;;;;4.53;2.67;;;3.50;92.80;;;;;;6251039;22;20201;-85
2022/01/10 03:34:57;;;;;;;3.77;2.63;;;3.60;92.90;;;;;;6249897;22;20169;-84
2022/01/10 03:37:24;;;;;;;6.23;3.03;;;3.60;93.30;;;;;;6249427;23;20543;-86
2022/01/10 03:39:51;;;;;;;4.83;3.27;;;3.70;93.20;;;;;;6251642;22;20557;-86
2022/01/10 03:42:18;;;;;;;6.60;3.23;;;3.80;93.00;;;;;;6250699;22;20199;-87
2022/01/10 03:44:47;;;;;;;6.17;3.67;;;3.80;92.80;;;;;;6251032;22;20189;-85
2022/01/10 03:47:16;;;;;;;4.60;3.63;;;3.80;92.70;;;;;;6250387;22;20201;-86
2022/01/10 03:49:43;;;;;;;5.57;3.63;;;3.70;92.00;;;;;;6251765;22;20173;-85
2022/01/10 03:52:11;;;;;;;4.83;3.47;;;3.60;92.70;;;;;;6250682;22;20220;-89
2022/01/10 03:54:38;;;;;;;5.77;3.50;;;3.60;93.50;;;;;;6252108;22;20204;-85
2022/01/10 03:57:05;;;;;;;7.00;3.80;;;3.70;93.00;;;;;;6249826;23;20207;-85
2022/01/10 03:59:33;;;;;;;5.13;3.90;;;3.70;92.80;;;;;;6251378;22;20248;-85
2022/01/10 04:02:02;;;;;;;4.47;3.40;;;3.90;93.10;;;;;;6249921;23;20197;-90
2022/01/10 04:04:29;;;;;;;5.33;3.70;;;4.00;92.60;;;;;;6251203;22;20239;-85
2022/01/10 04:06:57;;;;;;;4.93;3.80;;;4.00;92.80;;;;;;6251425;22;20256;-86
2022/01/10 04:09:27;;;;;;;6.10;4.00;;;4.10;92.00;;;;;;6251394;22;20248;-85
2022/01/10 04:11:54;;;;;;;6.53;4.13;;;3.90;92.40;;;;;;6252040;22;20296;-85
2022/01/10 04:14:21;;;;;;;6.67;4.07;;;3.90;91.80;;;;;;6250272;23;20173;-86
2022/01/10 04:16:48;;;;;;;8.60;4.20;;;3.70;92.30;;;;;;6250812;22;20280;-86
2022/01/10 04:19:17;;;;;;;6.17;4.50;;;3.70;92.40;;;;;;6251641;22;20260;-88
2022/01/10 04:21:44;;;;;;;6.27;4.10;;;3.70;92.70;;;;;;6251469;22;20596;-85
2022/01/10 04:24:12;;;;;;;6.53;4.10;;;3.90;93.20;;;;;;6251229;22;20539;-85
2022/01/10 04:26:39;;;;;;;7.07;3.80;;;3.90;92.00;;;;;;6252160;22;20235;-86
2022/01/10 04:29:06;;;;;;;5.00;4.20;;;3.90;92.50;;;;;;6252429;22;20196;-85
2022/01/10 04:31:33;;;;;;;6.30;3.60;;;4.00;92.50;;;;;;6251646;22;20201;-87
2022/01/10 04:34:00;;;;;;;6.67;3.80;;;3.90;92.50;;;;;;6253173;22;20197;-85
2022/01/10 04:36:29;;;;;;;5.10;3.90;;;3.90;92.60;;;;;;6252995;22;20441;-84
2022/01/10 04:38:56;;;;;;;5.63;3.80;;;3.90;92.50;;;;;;6253872;22;20169;-85
2022/01/10 04:41:23;;;;;;;8.33;3.93;;;4.00;92.60;;;;;;6248800;22;20220;-86
2022/01/10 04:43:50;;;;;;;5.00;4.27;;;4.00;92.50;;;;;;6244022;22;20180;-85
2022/01/10 04:46:17;;;;;;;5.17;4.20;;;4.10;92.70;;;;;;6244077;22;20193;-86
2022/01/10 04:48:44;;;;;;;5.57;4.50;;;4.10;92.50;;;;;;6244823;22;20173;-86
2022/01/10 04:51:12;;;;;;;6.00;3.83;;;4.20;92.40;;;;;;6242856;23;20205;-88
2022/01/10 04:53:43;;;;;;;5.87;4.00;;;4.10;92.50;;;;;;6244443;22;20212;-86
2022/01/10 04:56:10;;;;;;;5.93;4.20;;;3.90;92.20;;;;;;6244611;22;20193;-85
2022/01/10 04:58:37;;;;;;;4.80;4.00;;;3.90;92.30;;;;;;6245046;22;20170;-86
2022/01/10 05:01:06;;;;;;;5.53;4.30;;;3.90;92.10;;;;;;6244430;22;20193;-86
2022/01/10 05:03:33;;;;;;;6.17;4.17;;;3.80;91.70;;;;;;6244004;22;20684;-86
2022/01/10 05:06:00;;;;;;;9.27;4.57;;;3.70;91.70;;;;;;6244254;22;20209;-85
2022/01/10 05:08:27;;;;;;;6.77;4.17;;;3.70;92.20;;;;;;6243712;23;20179;-86
2022/01/10 05:10:58;;;;;;;6.50;4.13;;;3.90;92.50;;;;;;6243911;22;20764;-88
2022/01/10 05:13:25;;;;;;;8.57;4.50;;;3.70;92.10;;;;;;6244780;22;20159;-87
2022/01/10 05:15:52;;;;;;;7.97;4.47;;;3.70;92.50;;;;;;6244631;22;20275;-86
2022/01/10 05:18:21;;;;;;;7.23;4.40;;;3.80;91.90;;;;;;6244746;22;20462;-86
2022/01/10 05:20:48;;;;;;;9.03;4.63;;;3.70;92.70;;;;;;6244528;22;20280;-85
2022/01/10 05:23:16;;;;;;;9.17;4.90;;;3.80;92.60;;;;;;6243610;22;20179;-86
2022/01/10 05:25:44;;;;;;;8.07;5.00;;;3.90;92.40;;;;;;6244159;22;20197;-86
2022/01/10 05:28:14;;;;;;;6.37;4.80;;;4.00;92.20;;;;;;6244447;22;20402;-87
2022/01/10 05:30:41;;;;;;;6.30;5.00;;;4.00;92.00;;;;;;6244180;22;20197;-86
2022/01/10 05:33:10;;;;;;;7.77;5.23;;;3.90;92.00;;;;;;6245320;22;20252;-87
2022/01/10 05:36:18;;;;;;;8.93;4.97;;;3.90;92.60;;;;;;6243881;22;20177;-89
2022/01/10 05:38:45;;;;;;;6.30;4.43;;;4.00;92.20;;;;;;6247996;23;20245;-89
2022/01/10 05:41:12;;;;;;;9.27;4.73;;;4.00;91.60;;;;;;6248479;22;20197;-88
2022/01/10 05:43:41;;;;;;;7.80;4.83;;;4.00;91.50;;;;;;6249474;22;20240;-90
2022/01/10 05:46:38;;;;;;;6.30;4.53;;;4.10;91.70;;;;;;6255000;22;20189;-86
2022/01/10 05:49:07;;;;;;;7.47;5.00;;;4.00;91.40;;;;;;6246716;22;20547;-89
2022/01/10 05:51:36;;;;;;;8.90;5.10;;;4.00;91.80;;;;;;6247973;22;20162;-89
2022/01/10 05:54:06;;;;;;;7.97;4.90;;;3.90;92.20;;;;;;6248064;22;20166;-87
2022/01/10 05:56:34;;;;;;;7.70;4.93;;;3.80;92.10;;;;;;6248232;22;20203;-90
2022/01/10 05:59:07;;;;;;;7.33;5.17;;;3.80;91.80;;;;;;6248963;22;20164;-89
2022/01/10 06:01:34;;;;;;;10.07;4.73;;;3.80;91.70;;;;;;6248053;22;20199;-90
2022/01/10 06:04:02;;;;;;;6.27;4.70;;;3.70;92.10;;;;;;6249453;22;20722;-90
2022/01/10 06:06:29;;;;;;;7.70;5.27;;;3.80;92.10;;;;;;6248406;22;20195;-89
2022/01/10 06:09:04;;;;;;;10.30;4.87;;;3.70;91.80;;;;;;6248883;22;20870;-89
2022/01/10 06:11:46;;;;;;;7.47;5.27;;;3.70;92.10;;;;;;6249790;22;20159;-87
2022/01/10 06:17:37;;;;;;;7.90;5.77;;;3.70;92.60;;;;;;6249210;22;20262;-86
2022/01/10 06:20:07;;;;;;;8.13;5.47;;;3.60;92.40;;;;;;6248693;22;20196;-88
2022/01/10 06:22:34;;;;;;;11.70;6.60;;;3.50;93.10;;;;;;6247479;22;20219;-86
2022/01/10 06:25:01;;;;;;;9.77;6.27;;;3.60;93.30;;;;;;6248743;22;20202;-86
2022/01/10 06:27:29;;;;;;;9.53;6.57;;;3.70;94.00;;;;;;6250224;22;20203;-86
2022/01/10 06:29:56;;;;;;;6.77;5.77;;;3.90;93.50;;;;;;6250900;22;20165;-88
2022/01/10 06:32:23;;;;;;;8.47;5.77;;;4.10;92.90;;;;;;6250468;22;20197;-85
2022/01/10 06:34:52;;;;;;;9.17;6.37;;;4.00;93.10;;;;;;6251797;22;20173;-86
2022/01/10 06:37:21;;;;;;;8.73;6.20;;;4.00;91.90;;;;;;6251678;22;20193;-86
2022/01/10 06:39:48;;;;;;;9.97;6.37;;;4.00;92.30;;;;;;6255020;22;20229;-94
2022/01/10 14:54:54;;;;;;;13.73;8.73;;;4.20;90.90;;;;;;6250913;23;20509;-84
2022/01/10 14:57:20;;;;;;;12.87;8.60;;;4.10;90.90;;;;;;6254918;22;20179;-85
2022/01/10 14:59:47;;;;;;;12.43;7.50;;;4.40;91.00;;;;;;6252759;23;20532;-84
2022/01/10 15:26:22;;;;;;;13.63;7.70;;;4.30;90.60;;;;;;6264232;22;20616;-87
2022/01/10 15:29:17;;;;;;;12.27;7.73;;;4.20;89.30;;;;;;6253675;22;20180;-87
2022/01/10 15:35:14;;;;;;;16.60;8.77;;;4.20;90.10;;;;;;6250232;23;20150;-87
2022/01/10 15:37:41;;;;;;;13.73;9.20;;;4.10;90.10;;;;;;6252521;22;20197;-86
2022/01/10 15:40:09;;;;;;;14.70;9.80;;;4.10;90.30;;;;;;6250861;23;20622;-86
2022/01/10 15:42:39;;;;;;;12.80;9.17;;;3.90;90.60;;;;;;6249138;22;20204;-87
2022/01/10 15:45:07;;;;;;;15.83;9.70;;;3.80;90.80;;;;;;6249167;23;20165;-88
2022/01/10 15:47:34;;;;;;;13.10;8.73;;;3.80;90.90;;;;;;6248848;22;20272;-87
2022/01/10 15:50:02;;;;;;;13.47;8.30;;;3.80;91.00;;;;;;6248704;23;20220;-92
2022/01/10 15:52:31;;;;;;;12.97;8.47;;;3.80;90.70;;;;;;6246529;22;20247;-90
2022/01/10 15:54:59;;;;;;;14.60;8.60;;;3.70;90.80;;;;;;6248140;23;20177;-85
2022/01/10 15:57:54;;;;;;;17.53;9.43;;;3.70;91.30;;;;;;6219293;23;20205;-86
2022/01/10 16:00:21;;;;;;;15.47;9.23;;;3.70;91.10;;;;;;6249021;23;20153;-87
2022/01/10 16:02:48;;;;;;;13.30;8.90;;;3.70;91.30;;;;;;6248782;23;20193;-87
2022/01/10 16:05:15;;;;;;;16.70;9.53;;;3.70;91.20;;;;;;6248393;22;20189;-88
2022/01/10 16:07:42;;;;;;;14.33;9.10;;;3.70;91.60;;;;;;6250442;22;20646;-86
2022/01/10 16:10:11;;;;;;;14.10;10.20;;;3.80;91.30;;;;;;6250251;23;20204;-86
2022/01/10 16:12:38;;;;;;;16.00;10.10;;;3.80;91.40;;;;;;6247470;23;20197;-88
2022/01/10 16:15:08;;;;;;;21.00;11.20;;;3.80;91.70;;;;;;6249469;23;20176;-86
2022/01/10 16:17:35;;;;;;;17.07;10.50;;;3.60;92.10;;;;;;6248058;22;20211;-86
2022/01/10 16:20:03;;;;;;;17.10;10.13;;;3.60;92.50;;;;;;6249248;22;20170;-86
2022/01/10 16:22:30;;;;;;;15.03;10.50;;;3.60;92.60;;;;;;6248271;22;20201;-89
2022/01/10 16:24:57;;;;;;;18.73;10.33;;;3.50;92.70;;;;;;6247553;23;20256;-88
2022/01/10 16:27:24;;;;;;;14.47;9.77;;;3.60;92.50;;;;;;6248771;22;20231;-84
2022/01/10 16:29:51;;;;;;;14.97;9.23;;;3.70;92.50;;;;;;6250088;22;20635;-85
2022/01/10 16:32:19;;;;;;;16.53;9.70;;;3.70;92.10;;;;;;6251098;22;20159;-85
2022/01/10 16:35:25;;;;;;;12.77;9.77;;;3.70;92.10;;;;;;6249917;22;20240;-86
2022/01/10 16:38:00;;;;;;;15.57;9.97;;;3.70;92.10;;;;;;6249266;23;20212;-86
2022/01/10 16:40:28;;;;;;;14.13;10.17;;;3.80;92.10;;;;;;6249215;22;20168;-85
2022/01/10 16:42:55;;;;;;;15.13;9.90;;;3.80;92.10;;;;;;6249526;22;20252;-89
2022/01/10 16:45:22;;;;;;;16.50;9.73;;;3.80;92.20;;;;;;6246980;23;20181;-86
2022/01/10 16:48:22;;;;;;;17.13;9.53;;;3.80;92.10;;;;;;6248699;22;20154;-86
2022/01/10 16:50:50;;;;;;;13.13;9.10;;;3.80;92.00;;;;;;6248446;22;20248;-87
2022/01/10 16:53:17;;;;;;;13.63;9.00;;;3.90;91.90;;;;;;6245752;23;20172;-89
2022/01/10 16:55:44;;;;;;;15.60;9.17;;;3.90;91.70;;;;;;6246146;22;20652;-89
2022/01/10 17:05:45;;;;;;;13.97;8.60;;;3.90;91.50;;;;;;6251155;23;20149;-84
2022/01/10 17:08:17;;;;;;;16.67;9.40;;;3.90;91.50;;;;;;6247543;23;20247;-84
2022/01/10 17:44:17;;;;;;;14.80;9.43;;;3.30;93.00;;;;;;6254443;23;20153;-84
2022/01/10 17:46:46;;;;;;;16.20;9.67;;;3.20;93.10;;;;;;6248426;23;20712;-85
2022/01/10 17:49:24;;;;;;;16.27;9.87;;;3.20;93.40;;;;;;6223025;23;20157;-85
2022/01/10 17:51:59;;;;;;;16.73;11.10;;;3.20;93.70;;;;;;6218748;23;20585;-85
2022/01/10 17:54:27;;;;;;;18.63;10.30;;;3.10;93.90;;;;;;6248673;23;20219;-85
2022/01/10 17:56:55;;;;;;;18.70;10.27;;;3.10;94.10;;;;;;6249333;23;20582;-86
2022/01/10 17:59:22;;;;;;;13.63;9.30;;;3.20;94.00;;;;;;6252333;23;20172;-89
2022/01/10 18:01:50;;;;;;;15.07;9.80;;;3.30;93.40;;;;;;6251329;23;20680;-89
2022/01/10 18:04:17;;;;;;;13.17;9.53;;;3.40;93.20;;;;;;6251680;23;20165;-85
2022/01/10 18:06:44;;;;;;;14.53;10.17;;;3.30;93.00;;;;;;6250825;22;20201;-87
2022/01/10 18:09:13;;;;;;;15.13;9.90;;;3.30;93.30;;;;;;6252887;23;20539;-86
2022/01/10 18:11:41;;;;;;;11.70;8.50;;;3.30;93.60;;;;;;6250799;22;21021;-89
2022/01/10 18:14:08;;;;;;;17.47;8.73;;;3.40;93.00;;;;;;6252169;23;20195;-88
2022/01/10 18:16:36;;;;;;;13.00;8.90;;;3.30;92.40;;;;;;6253829;22;20227;-86
2022/01/10 18:19:07;;;;;;;12.37;8.40;;;3.40;92.50;;;;;;6255325;22;20252;-85
2022/01/10 18:21:34;;;;;;;12.17;6.57;;;3.40;92.40;;;;;;6254164;23;20396;-86
2022/01/10 18:24:01;;;;;;;9.37;7.37;;;3.40;91.80;;;;;;6255405;22;20201;-88
2022/01/10 18:26:30;;;;;;;10.50;7.50;;;3.50;91.60;;;;;;6251966;22;20696;-89
2022/01/10 18:28:57;;;;;;;15.50;8.20;;;3.40;91.70;;;;;;6253503;22;20526;-82
2022/01/10 18:31:30;;;;;;;12.67;8.10;;;3.40;91.80;;;;;;6249629;22;20197;-82
2022/01/10 18:33:59;;;;;;;11.47;7.93;;;3.50;91.60;;;;;;6252560;22;20211;-83
2022/01/10 18:36:30;;;;;;;11.43;7.60;;;3.40;91.70;;;;;;6252993;22;20196;-86
2022/01/10 18:38:57;;;;;;;11.17;7.67;;;3.40;91.80;;;;;;6253553;22;20157;-81
2022/01/10 18:41:25;;;;;;;17.67;8.53;;;3.40;91.90;;;;;;6252379;22;20262;-83
2022/01/10 18:43:53;;;;;;;13.47;8.77;;;3.50;91.80;;;;;;6252495;22;20172;-85
2022/01/10 18:46:20;;;;;;;12.00;8.23;;;3.50;91.80;;;;;;6255135;22;20181;-84
2022/01/10 18:48:48;;;;;;;15.67;8.70;;;3.50;92.10;;;;;;6252913;22;20158;-84
2022/01/10 18:51:15;;;;;;;13.47;8.40;;;3.60;92.10;;;;;;6262258;22;20570;-84
2022/01/10 18:53:44;;;;;;;13.90;8.17;;;3.70;91.80;;;;;;6255202;22;20249;-83
2022/01/10 18:56:12;;;;;;;13.10;8.77;;;3.60;91.70;;;;;;6254296;22;20608;-82
2022/01/10 20:10:15;;;;;;;13.40;8.30;;;3.20;92.70;;;;;;6276673;22;20188;-83
2022/01/10 20:12:42;;;;;;;15.57;8.77;;;3.30;92.70;;;;;;6254698;22;20173;-84
2022/01/10 20:15:29;;;;;;;12.33;8.63;;;3.40;92.30;;;;;;6251696;23;20249;-84
2022/01/10 21:46:29;;;;;;;14.27;9.50;;;3.60;92.90;;;;;;6276583;22;20542;-84
